Time;durP1;ratioP1;P1;durP2;ratioP2;P2;SDS_P1;SDS_P2;PMS_P1;PMS_P2;Temp;Humidity;BMP_temperature;BMP_pressure;BME280_temperature;BME280_humidity;BME280_pressure;Samples;Min_cycle;Max_cycle;Signal;HPM_P1;HPM_P2
2022/03/27 00:02:13;;;;;;;6.97;3.38;;;;;;;;;;5009484;28;20037;-78
2022/03/27 00:04:39;;;;;;;6.53;3.50;;;;;;;;;;5026862;28;20063;-75
2022/03/27 00:07:06;;;;;;;6.28;3.28;;;;;;;;;;5009075;28;20310;-75
2022/03/27 00:09:32;;;;;;;6.90;3.95;;;;;;;;;;5026762;28;20034;-77
2022/03/27 00:11:58;;;;;;;5.82;3.22;;;;;;;;;;5026347;28;20061;-78
2022/03/27 00:14:24;;;;;;;6.47;3.63;;;;;;;;;;5009097;28;20068;-78
2022/03/27 00:16:50;;;;;;;6.03;3.50;;;;;;;;;;5026701;28;20505;-78
2022/03/27 00:19:16;;;;;;;6.00;3.35;;;;;;;;;;5009590;28;20447;-78
2022/03/27 00:21:44;;;;;;;6.82;3.63;;;;;;;;;;4993172;28;20403;-78
2022/03/27 00:24:10;;;;;;;5.05;3.10;;;;;;;;;;5009862;28;20612;-78
2022/03/27 00:26:36;;;;;;;5.35;3.35;;;;;;;;;;5008696;28;20037;-75
2022/03/27 00:29:02;;;;;;;6.50;3.35;;;;;;;;;;5061641;28;20368;-75
2022/03/27 00:31:35;;;;;;;6.45;3.40;;;;;;;;;;5008688;28;20041;-75
2022/03/27 00:34:02;;;;;;;6.22;3.75;;;;;;;;;;5008887;28;20068;-78
2022/03/27 00:36:28;;;;;;;5.40;3.20;;;;;;;;;;5009094;28;20065;-78
2022/03/27 00:38:54;;;;;;;6.22;3.20;;;;;;;;;;4992248;28;20052;-78
2022/03/27 00:41:23;;;;;;;6.13;3.15;;;;;;;;;;4992489;28;20060;-78
2022/03/27 00:43:49;;;;;;;6.88;3.42;;;;;;;;;;5026267;28;20375;-78
2022/03/27 00:46:15;;;;;;;7.10;3.72;;;;;;;;;;5009091;28;20041;-78
2022/03/27 00:48:42;;;;;;;6.15;3.67;;;;;;;;;;5008418;28;20041;-78
2022/03/27 00:51:08;;;;;;;7.25;3.65;;;;;;;;;;5008550;28;20390;-78
2022/03/27 00:53:34;;;;;;;6.75;3.47;;;;;;;;;;5008776;28;20089;-79
2022/03/27 00:56:00;;;;;;;7.50;3.65;;;;;;;;;;5026020;28;20037;-78
2022/03/27 00:58:26;;;;;;;8.88;4.25;;;;;;;;;;5026338;28;20042;-78
2022/03/27 01:01:11;;;;;;;7.65;3.83;;;;;;;;;;5026073;28;20394;-78
2022/03/27 01:03:37;;;;;;;7.47;4.18;;;;;;;;;;5026194;28;20033;-78
2022/03/27 01:06:03;;;;;;;7.75;3.67;;;;;;;;;;4992057;28;20037;-78
2022/03/27 01:11:18;;;;;;;9.30;4.22;;;;;;;;;;5008038;28;20037;-78
2022/03/27 01:13:45;;;;;;;7.18;3.60;;;;;;;;;;5007706;28;20065;-78
2022/03/27 01:16:15;;;;;;;7.78;3.40;;;;;;;;;;5008194;28;20094;-78
2022/03/27 01:18:42;;;;;;;7.40;3.83;;;;;;;;;;5005748;28;20049;-77
2022/03/27 01:21:08;;;;;;;8.27;4.32;;;;;;;;;;5018232;28;20049;-78
2022/03/27 01:23:35;;;;;;;7.50;3.95;;;;;;;;;;5010030;28;20366;-77
2022/03/27 01:26:01;;;;;;;7.13;3.97;;;;;;;;;;5011329;28;20640;-78
2022/03/27 01:28:27;;;;;;;8.23;4.00;;;;;;;;;;5029246;28;20041;-78
2022/03/27 01:30:54;;;;;;;8.13;4.00;;;;;;;;;;4995317;28;20497;-77
2022/03/27 01:33:20;;;;;;;8.65;4.45;;;;;;;;;;5011440;28;20049;-78
2022/03/27 01:35:46;;;;;;;7.15;3.90;;;;;;;;;;4995176;28;20113;-78
2022/03/27 01:38:12;;;;;;;6.50;3.90;;;;;;;;;;5011664;28;20517;-78
2022/03/27 01:40:38;;;;;;;6.63;3.50;;;;;;;;;;5011306;28;20077;-77
2022/03/27 01:43:04;;;;;;;6.97;4.20;;;;;;;;;;5011164;28;20098;-78
2022/03/27 01:45:31;;;;;;;8.02;4.03;;;;;;;;;;5028942;28;20121;-76
2022/03/27 01:47:58;;;;;;;6.55;3.63;;;;;;;;;;5011157;28;20104;-75
2022/03/27 01:50:24;;;;;;;8.57;4.00;;;;;;;;;;5011329;28;20061;-75
2022/03/27 01:52:50;;;;;;;7.43;3.80;;;;;;;;;;5010690;28;20045;-78
2022/03/27 01:55:16;;;;;;;7.55;4.28;;;;;;;;;;5028832;28;20108;-75
2022/03/27 01:57:43;;;;;;;6.38;3.50;;;;;;;;;;5028590;28;20038;-78
2022/03/27 02:00:10;;;;;;;7.13;3.92;;;;;;;;;;5010884;28;20041;-78
2022/03/27 02:02:36;;;;;;;8.55;4.07;;;;;;;;;;4994661;28;20033;-78
2022/03/27 02:05:04;;;;;;;8.77;4.50;;;;;;;;;;5010656;28;20042;-78
2022/03/27 02:07:37;;;;;;;8.98;4.32;;;;;;;;;;5011030;28;20049;-76
2022/03/27 02:10:04;;;;;;;6.75;4.00;;;;;;;;;;5010939;28;20045;-79
2022/03/27 02:12:32;;;;;;;10.82;4.20;;;;;;;;;;4994344;28;20064;-78
2022/03/27 02:14:59;;;;;;;10.27;4.45;;;;;;;;;;5010562;28;20113;-78
2022/03/27 02:17:25;;;;;;;7.95;4.18;;;;;;;;;;5028522;28;20116;-78
2022/03/27 02:19:51;;;;;;;8.00;4.15;;;;;;;;;;4993931;28;20045;-78
2022/03/27 02:22:17;;;;;;;9.32;4.47;;;;;;;;;;5010637;28;20121;-78
2022/03/27 02:24:43;;;;;;;9.98;4.13;;;;;;;;;;5028521;28;20059;-77
2022/03/27 02:27:09;;;;;;;9.00;4.32;;;;;;;;;;5021108;28;20038;-78
2022/03/27 02:29:35;;;;;;;9.95;4.60;;;;;;;;;;4994618;28;20508;-78
2022/03/27 02:32:01;;;;;;;9.77;4.20;;;;;;;;;;4994192;28;20386;-74
2022/03/27 02:34:27;;;;;;;11.05;4.25;;;;;;;;;;4993182;28;20124;-74
2022/03/27 02:36:53;;;;;;;14.02;4.20;;;;;;;;;;5007943;28;20101;-75
2022/03/27 02:39:20;;;;;;;9.60;4.40;;;;;;;;;;5010982;28;20394;-74
2022/03/27 02:41:46;;;;;;;11.30;4.55;;;;;;;;;;5009845;28;20076;-74
2022/03/27 02:44:12;;;;;;;10.25;4.25;;;;;;;;;;5009908;28;20101;-74
2022/03/27 02:46:39;;;;;;;11.07;3.97;;;;;;;;;;5010339;28;20407;-74
2022/03/27 02:49:05;;;;;;;12.18;4.32;;;;;;;;;;5010563;28;20402;-74
2022/03/27 02:51:31;;;;;;;10.77;4.45;;;;;;;;;;5009728;28;20038;-74
2022/03/27 02:53:57;;;;;;;9.73;4.10;;;;;;;;;;5009881;28;20044;-75
2022/03/27 02:56:23;;;;;;;10.13;3.83;;;;;;;;;;5010165;28;20514;-74
2022/03/27 02:58:49;;;;;;;12.60;4.40;;;;;;;;;;5009600;28;20120;-74
2022/03/27 03:01:15;;;;;;;13.27;4.28;;;;;;;;;;4988728;28;20033;-74
2022/03/27 03:03:42;;;;;;;12.48;4.22;;;;;;;;;;4996859;28;20048;-73
2022/03/27 03:06:09;;;;;;;10.38;4.10;;;;;;;;;;5008782;28;20037;-75
2022/03/27 03:08:38;;;;;;;11.70;4.93;;;;;;;;;;5027562;28;20069;-74
2022/03/27 03:11:04;;;;;;;11.00;4.63;;;;;;;;;;5010064;28;20048;-74
2022/03/27 03:13:31;;;;;;;12.57;5.28;;;;;;;;;;4973779;28;20050;-75
2022/03/27 03:15:57;;;;;;;13.80;5.05;;;;;;;;;;4986639;28;20082;-74
2022/03/27 03:18:25;;;;;;;12.48;4.30;;;;;;;;;;4988339;28;20558;-74
2022/03/27 03:20:51;;;;;;;16.85;5.10;;;;;;;;;;4986723;28;20074;-74
2022/03/27 03:23:18;;;;;;;11.32;4.75;;;;;;;;;;4988256;28;20582;-77
2022/03/27 03:25:44;;;;;;;12.70;5.25;;;;;;;;;;4986861;28;20443;-77
2022/03/27 03:28:10;;;;;;;12.63;4.95;;;;;;;;;;4988036;28;20039;-78
2022/03/27 03:30:36;;;;;;;15.02;5.53;;;;;;;;;;4987117;28;20129;-77
2022/03/27 03:33:03;;;;;;;16.77;5.57;;;;;;;;;;4970812;28;20042;-77
2022/03/27 03:35:29;;;;;;;16.85;5.00;;;;;;;;;;4987156;28;20057;-77
2022/03/27 03:37:55;;;;;;;13.98;5.82;;;;;;;;;;4970594;28;20091;-77
2022/03/27 03:40:23;;;;;;;13.35;5.53;;;;;;;;;;4987029;28;20455;-77
2022/03/27 03:42:49;;;;;;;16.02;5.47;;;;;;;;;;4970438;28;20050;-77
2022/03/27 03:45:15;;;;;;;16.67;5.85;;;;;;;;;;4970628;28;20462;-77
2022/03/27 03:47:41;;;;;;;15.20;5.80;;;;;;;;;;4986522;28;20038;-77
2022/03/27 03:50:09;;;;;;;17.33;5.28;;;;;;;;;;4987001;28;20049;-77
2022/03/27 03:52:35;;;;;;;14.98;5.45;;;;;;;;;;4986980;28;20454;-77
2022/03/27 03:55:01;;;;;;;18.23;5.75;;;;;;;;;;4988164;28;20343;-75
2022/03/27 03:57:27;;;;;;;15.70;6.13;;;;;;;;;;4969841;28;20490;-77
2022/03/27 03:59:53;;;;;;;15.05;5.45;;;;;;;;;;4988575;28;20039;-77
2022/03/27 04:02:20;;;;;;;16.33;6.30;;;;;;;;;;4987622;28;20448;-77
2022/03/27 04:04:46;;;;;;;13.27;5.15;;;;;;;;;;4987051;28;20030;-78
2022/03/27 04:07:12;;;;;;;19.23;6.22;;;;;;;;;;4987443;28;20030;-77
2022/03/27 04:09:38;;;;;;;18.90;6.18;;;;;;;;;;4970885;28;20462;-77
2022/03/27 04:12:05;;;;;;;17.10;6.10;;;;;;;;;;4997474;28;20060;-77
2022/03/27 04:14:34;;;;;;;17.02;6.72;;;;;;;;;;5026779;28;20033;-77
2022/03/27 04:17:00;;;;;;;17.48;5.65;;;;;;;;;;5008873;28;20124;-77
2022/03/27 04:19:27;;;;;;;15.52;6.32;;;;;;;;;;5009164;28;20049;-76
2022/03/27 04:21:53;;;;;;;16.08;5.88;;;;;;;;;;5008735;28;20064;-77
2022/03/27 04:24:19;;;;;;;12.23;6.10;;;;;;;;;;5009049;28;20037;-75
2022/03/27 04:26:46;;;;;;;17.45;6.40;;;;;;;;;;5026345;28;20414;-75
2022/03/27 04:29:12;;;;;;;13.63;5.53;;;;;;;;;;5009406;28;20077;-77
2022/03/27 04:31:39;;;;;;;17.65;6.55;;;;;;;;;;5010085;28;20091;-79
2022/03/27 04:34:05;;;;;;;19.52;6.68;;;;;;;;;;5009343;28;20045;-75
2022/03/27 04:36:31;;;;;;;18.55;7.07;;;;;;;;;;5009112;28;20475;-75
2022/03/27 04:38:57;;;;;;;16.10;6.13;;;;;;;;;;5026229;28;20090;-74
2022/03/27 04:41:23;;;;;;;18.38;6.22;;;;;;;;;;4992463;28;20046;-75
2022/03/27 04:43:49;;;;;;;19.17;6.53;;;;;;;;;;5008646;28;20041;-74
2022/03/27 04:46:16;;;;;;;20.02;6.75;;;;;;;;;;5008674;28;20116;-75
2022/03/27 04:48:42;;;;;;;16.63;5.97;;;;;;;;;;4992370;28;20105;-75
2022/03/27 04:51:08;;;;;;;21.63;6.85;;;;;;;;;;5003128;28;20043;-75
2022/03/27 04:53:35;;;;;;;16.55;6.40;;;;;;;;;;4992188;28;20073;-75
2022/03/27 04:56:01;;;;;;;17.20;6.70;;;;;;;;;;5026055;28;20041;-75
2022/03/27 04:58:27;;;;;;;19.25;6.40;;;;;;;;;;5010373;28;20124;-75
2022/03/27 05:00:53;;;;;;;15.02;6.15;;;;;;;;;;4991905;28;20057;-75
2022/03/27 05:03:19;;;;;;;16.20;6.10;;;;;;;;;;5018263;28;20073;-75
2022/03/27 05:05:45;;;;;;;19.33;6.95;;;;;;;;;;5010942;28;20040;-75
2022/03/27 05:08:11;;;;;;;15.90;5.50;;;;;;;;;;5011629;28;20057;-75
2022/03/27 05:10:39;;;;;;;17.67;6.43;;;;;;;;;;5011907;28;20049;-75
2022/03/27 05:13:05;;;;;;;18.15;5.95;;;;;;;;;;5011619;28;20068;-75
2022/03/27 05:15:31;;;;;;;21.02;6.15;;;;;;;;;;5011684;28;20080;-75
2022/03/27 05:17:58;;;;;;;18.10;5.68;;;;;;;;;;5011411;28;20041;-75
2022/03/27 05:20:25;;;;;;;17.17;5.93;;;;;;;;;;5028878;28;20053;-75
2022/03/27 05:22:51;;;;;;;13.52;5.50;;;;;;;;;;5010790;28;20120;-75
2022/03/27 05:25:18;;;;;;;15.68;6.50;;;;;;;;;;5011408;28;20327;-74
2022/03/27 05:27:47;;;;;;;18.80;5.55;;;;;;;;;;5011901;28;20482;-78
2022/03/27 05:30:15;;;;;;;19.60;6.25;;;;;;;;;;5012092;28;20046;-78
2022/03/27 05:32:41;;;;;;;19.30;5.82;;;;;;;;;;5011136;28;20048;-78
2022/03/27 05:35:07;;;;;;;23.42;6.25;;;;;;;;;;5011420;28;20120;-75
2022/03/27 05:37:38;;;;;;;23.85;6.90;;;;;;;;;;5011125;28;20049;-75
2022/03/27 05:40:05;;;;;;;21.02;6.93;;;;;;;;;;5010940;28;20041;-75
2022/03/27 05:42:31;;;;;;;23.20;6.95;;;;;;;;;;5011392;28;20136;-75
2022/03/27 05:44:57;;;;;;;24.85;7.80;;;;;;;;;;5011022;28;20045;-75
2022/03/27 05:47:23;;;;;;;20.48;5.68;;;;;;;;;;5011417;28;20045;-75
2022/03/27 05:49:49;;;;;;;19.02;6.07;;;;;;;;;;5028462;28;20037;-75
2022/03/27 05:52:16;;;;;;;19.45;5.50;;;;;;;;;;5010963;28;20054;-75
2022/03/27 05:54:42;;;;;;;23.15;6.40;;;;;;;;;;4994616;28;20052;-74
2022/03/27 05:57:09;;;;;;;23.90;6.78;;;;;;;;;;5028866;28;20038;-75
2022/03/27 05:59:35;;;;;;;24.25;6.50;;;;;;;;;;4994660;28;20041;-75
2022/03/27 06:02:01;;;;;;;20.48;6.70;;;;;;;;;;5028568;28;20037;-75
2022/03/27 06:04:30;;;;;;;25.63;6.38;;;;;;;;;;4995002;28;20033;-75
2022/03/27 06:06:56;;;;;;;23.88;6.55;;;;;;;;;;5010571;28;20033;-75
2022/03/27 06:09:22;;;;;;;22.50;7.10;;;;;;;;;;5010929;28;20046;-75
2022/03/27 06:11:49;;;;;;;20.50;5.97;;;;;;;;;;5010539;28;20513;-75
2022/03/27 06:14:15;;;;;;;32.90;6.43;;;;;;;;;;5010911;28;20094;-75
2022/03/27 06:16:41;;;;;;;21.23;5.82;;;;;;;;;;5028517;28;20029;-75
2022/03/27 06:19:07;;;;;;;22.42;6.00;;;;;;;;;;5010554;28;20040;-78
2022/03/27 06:21:34;;;;;;;20.30;6.10;;;;;;;;;;4994284;28;20052;-78
2022/03/27 06:24:00;;;;;;;23.67;6.07;;;;;;;;;;4994373;28;20479;-78
2022/03/27 06:26:26;;;;;;;24.85;6.15;;;;;;;;;;5028657;28;20141;-78
2022/03/27 06:28:52;;;;;;;22.42;6.50;;;;;;;;;;5010526;28;20041;-78
2022/03/27 06:31:18;;;;;;;25.70;5.80;;;;;;;;;;5010736;28;20033;-78
2022/03/27 06:33:44;;;;;;;26.48;6.05;;;;;;;;;;5028240;28;20489;-78
2022/03/27 06:36:11;;;;;;;21.65;5.75;;;;;;;;;;5010546;28;20033;-78
2022/03/27 06:38:38;;;;;;;25.73;6.28;;;;;;;;;;5028218;28;20053;-77
2022/03/27 06:41:06;;;;;;;27.92;6.50;;;;;;;;;;5062412;28;20136;-76
2022/03/27 06:43:33;;;;;;;22.17;6.45;;;;;;;;;;5011057;28;20106;-75
2022/03/27 06:46:00;;;;;;;19.30;5.40;;;;;;;;;;4993493;28;20041;-75
2022/03/27 06:48:27;;;;;;;22.52;5.65;;;;;;;;;;5027706;28;20183;-75
2022/03/27 06:50:53;;;;;;;26.52;6.10;;;;;;;;;;5027523;28;20038;-75
2022/03/27 06:53:21;;;;;;;19.80;6.03;;;;;;;;;;5028071;28;20034;-75
2022/03/27 06:55:47;;;;;;;22.40;5.30;;;;;;;;;;5027681;28;20043;-77
2022/03/27 06:58:14;;;;;;;26.10;6.60;;;;;;;;;;5010472;28;20042;-78
2022/03/27 07:03:25;;;;;;;21.85;7.13;;;;;;;;;;5010193;28;20045;-77
2022/03/27 07:05:51;;;;;;;25.58;6.53;;;;;;;;;;5009822;28;20038;-78
2022/03/27 07:08:19;;;;;;;31.05;7.18;;;;;;;;;;5010350;28;20109;-78
2022/03/27 07:10:46;;;;;;;25.15;6.38;;;;;;;;;;5009529;28;20038;-78
2022/03/27 07:13:15;;;;;;;22.05;6.03;;;;;;;;;;5009813;28;20546;-78
2022/03/27 07:15:41;;;;;;;28.00;6.10;;;;;;;;;;5010219;28;20048;-78
2022/03/27 07:18:08;;;;;;;27.17;6.63;;;;;;;;;;4993700;28;20038;-78
2022/03/27 07:20:36;;;;;;;34.65;7.03;;;;;;;;;;5026631;28;20049;-78
2022/03/27 07:23:04;;;;;;;28.08;6.15;;;;;;;;;;5009730;28;20124;-78
2022/03/27 07:25:32;;;;;;;30.42;6.57;;;;;;;;;;5027726;28;20094;-78
2022/03/27 07:27:59;;;;;;;24.75;6.28;;;;;;;;;;5009936;28;20367;-78
2022/03/27 07:30:25;;;;;;;23.55;6.55;;;;;;;;;;5027527;28;20042;-77
2022/03/27 07:32:52;;;;;;;33.40;6.93;;;;;;;;;;4993373;28;20102;-77
2022/03/27 07:35:18;;;;;;;20.33;6.15;;;;;;;;;;5010033;28;20499;-74
2022/03/27 07:37:45;;;;;;;29.35;6.55;;;;;;;;;;5008978;28;20120;-73
2022/03/27 07:40:12;;;;;;;29.73;6.20;;;;;;;;;;5009488;28;20132;-73
2022/03/27 07:42:40;;;;;;;27.50;6.68;;;;;;;;;;5009839;28;20486;-74
2022/03/27 07:45:06;;;;;;;31.42;7.35;;;;;;;;;;4993075;28;20530;-75
2022/03/27 07:47:33;;;;;;;34.35;7.60;;;;;;;;;;5009581;28;20042;-74
2022/03/27 07:50:00;;;;;;;32.40;8.45;;;;;;;;;;5009381;28;20138;-73
2022/03/27 07:52:26;;;;;;;30.92;6.32;;;;;;;;;;5027217;28;20359;-75
2022/03/27 07:54:52;;;;;;;28.20;6.20;;;;;;;;;;5026813;28;20045;-75
2022/03/27 07:57:20;;;;;;;28.95;6.25;;;;;;;;;;5008903;28;20060;-75
2022/03/27 07:59:47;;;;;;;25.70;6.40;;;;;;;;;;5008450;28;20037;-74
2022/03/27 08:02:13;;;;;;;36.95;7.57;;;;;;;;;;5009203;28;20048;-74
2022/03/27 08:04:39;;;;;;;30.55;6.50;;;;;;;;;;5009512;28;20557;-76
2022/03/27 08:07:05;;;;;;;31.73;6.65;;;;;;;;;;4992424;28;20033;-73
2022/03/27 08:09:31;;;;;;;30.42;6.20;;;;;;;;;;5009112;28;20037;-74
2022/03/27 08:11:57;;;;;;;29.42;7.03;;;;;;;;;;4992293;28;20121;-74
2022/03/27 08:14:28;;;;;;;28.77;8.10;;;;;;;;;;5008593;28;20136;-75
2022/03/27 08:16:54;;;;;;;24.90;6.65;;;;;;;;;;4992939;28;20045;-75
2022/03/27 08:19:21;;;;;;;27.70;6.97;;;;;;;;;;4992869;28;20120;-75
2022/03/27 08:21:47;;;;;;;22.33;6.22;;;;;;;;;;5026313;28;20041;-74
2022/03/27 08:24:13;;;;;;;23.98;6.65;;;;;;;;;;5024628;28;20432;-74
2022/03/27 08:26:59;;;;;;;25.55;6.15;;;;;;;;;;5026228;28;20041;-75
2022/03/27 08:29:29;;;;;;;21.00;5.35;;;;;;;;;;5021829;28;20076;-75
2022/03/27 08:31:56;;;;;;;28.25;5.85;;;;;;;;;;5027421;28;20041;-75
2022/03/27 08:34:25;;;;;;;25.52;6.05;;;;;;;;;;4996117;28;20041;-76
2022/03/27 08:36:52;;;;;;;25.33;5.47;;;;;;;;;;5011854;28;20041;-76
2022/03/27 08:39:18;;;;;;;20.70;5.55;;;;;;;;;;5029468;28;20064;-75
2022/03/27 08:41:45;;;;;;;30.40;6.57;;;;;;;;;;5029358;28;20038;-75
2022/03/27 08:44:11;;;;;;;20.58;5.07;;;;;;;;;;5012671;28;20029;-77
2022/03/27 08:46:38;;;;;;;18.20;5.07;;;;;;;;;;5012086;28;20044;-79
2022/03/27 08:49:27;;;;;;;26.38;6.18;;;;;;;;;;5011771;28;20106;-77
2022/03/27 08:52:11;;;;;;;23.38;6.25;;;;;;;;;;4987155;28;20038;-79
2022/03/27 08:54:41;;;;;;;21.05;5.88;;;;;;;;;;5022430;28;20116;-78
2022/03/27 08:57:10;;;;;;;22.33;6.13;;;;;;;;;;5012015;28;20045;-79
2022/03/27 08:59:38;;;;;;;17.27;4.85;;;;;;;;;;5011818;28;20098;-79
2022/03/27 09:02:04;;;;;;;15.95;5.32;;;;;;;;;;5012357;28;20140;-78
2022/03/27 09:04:31;;;;;;;21.02;5.28;;;;;;;;;;5029728;28;20037;-79
2022/03/27 09:06:57;;;;;;;19.08;5.05;;;;;;;;;;5029400;28;20037;-79
2022/03/27 09:09:23;;;;;;;21.02;4.72;;;;;;;;;;5029787;28;20417;-79
2022/03/27 09:11:50;;;;;;;21.10;5.05;;;;;;;;;;4995110;28;20098;-79
2022/03/27 09:14:17;;;;;;;19.70;5.28;;;;;;;;;;4995352;28;20410;-79
2022/03/27 09:17:02;;;;;;;23.80;5.45;;;;;;;;;;5012009;28;20414;-79
2022/03/27 09:19:39;;;;;;;16.05;5.20;;;;;;;;;;5012073;28;20053;-79
2022/03/27 09:22:25;;;;;;;16.85;4.72;;;;;;;;;;5009781;28;20045;-79
2022/03/27 09:24:59;;;;;;;18.52;5.10;;;;;;;;;;5011600;28;20710;-79
2022/03/27 09:27:36;;;;;;;20.60;5.57;;;;;;;;;;5011707;28;20128;-79
2022/03/27 09:30:09;;;;;;;17.50;4.75;;;;;;;;;;5009820;28;20668;-79
2022/03/27 09:32:39;;;;;;;22.70;5.95;;;;;;;;;;5011454;28;20064;-79
2022/03/27 09:35:08;;;;;;;19.13;5.50;;;;;;;;;;4994643;28;20049;-74
2022/03/27 09:37:37;;;;;;;19.17;5.05;;;;;;;;;;5011478;28;20033;-73
2022/03/27 09:40:04;;;;;;;17.92;5.25;;;;;;;;;;5010883;28;20052;-74
2022/03/27 09:42:30;;;;;;;17.60;4.80;;;;;;;;;;5011305;28;20040;-74
2022/03/27 09:45:29;;;;;;;21.13;5.53;;;;;;;;;;5010679;28;20044;-75
2022/03/27 09:48:07;;;;;;;20.27;5.47;;;;;;;;;;4995403;28;20049;-75
2022/03/27 09:50:37;;;;;;;15.40;4.72;;;;;;;;;;5011189;28;20048;-75
2022/03/27 09:53:23;;;;;;;17.08;5.05;;;;;;;;;;5010976;28;20124;-75
2022/03/27 09:55:53;;;;;;;15.70;4.80;;;;;;;;;;5010776;28;20038;-75
2022/03/27 09:58:35;;;;;;;18.48;4.68;;;;;;;;;;5010904;28;20049;-76
2022/03/27 10:01:27;;;;;;;18.90;4.75;;;;;;;;;;5028427;28;20125;-73
2022/03/27 10:04:07;;;;;;;16.60;5.00;;;;;;;;;;5027768;28;20045;-73
2022/03/27 10:06:37;;;;;;;15.27;4.32;;;;;;;;;;5029287;28;20037;-74
2022/03/27 10:09:08;;;;;;;17.52;4.40;;;;;;;;;;5010594;28;20490;-75
2022/03/27 10:11:35;;;;;;;17.92;4.40;;;;;;;;;;5010878;28;20037;-75
2022/03/27 10:14:01;;;;;;;13.88;4.18;;;;;;;;;;5010490;28;20403;-76
2022/03/27 10:16:37;;;;;;;20.65;4.55;;;;;;;;;;5010828;28;20053;-77
2022/03/27 10:19:07;;;;;;;16.42;4.60;;;;;;;;;;5010767;28;20042;-75
2022/03/27 10:21:33;;;;;;;17.55;4.32;;;;;;;;;;5009926;28;20045;-76
2022/03/27 10:24:03;;;;;;;16.95;4.53;;;;;;;;;;4994192;28;20486;-76
2022/03/27 10:26:30;;;;;;;15.27;4.28;;;;;;;;;;5010749;28;20069;-76
2022/03/27 10:28:57;;;;;;;13.55;4.60;;;;;;;;;;5009975;28;20045;-76
2022/03/27 10:31:23;;;;;;;17.58;4.70;;;;;;;;;;5010359;28;20426;-75
2022/03/27 10:33:50;;;;;;;19.15;5.22;;;;;;;;;;5027755;28;20072;-75
2022/03/27 10:36:30;;;;;;;19.00;4.50;;;;;;;;;;4994489;28;20033;-74
2022/03/27 10:39:02;;;;;;;15.98;4.38;;;;;;;;;;5010253;28;20049;-75
2022/03/27 10:41:29;;;;;;;15.75;4.25;;;;;;;;;;5010326;28;20046;-75
2022/03/27 10:44:04;;;;;;;15.68;4.47;;;;;;;;;;5027916;28;20436;-77
2022/03/27 10:46:30;;;;;;;16.00;4.53;;;;;;;;;;5010185;28;20050;-76
2022/03/27 10:49:12;;;;;;;15.73;4.22;;;;;;;;;;5009753;28;20062;-75
2022/03/27 10:51:39;;;;;;;14.55;3.65;;;;;;;;;;5009533;28;20045;-74
2022/03/27 10:54:06;;;;;;;13.68;4.20;;;;;;;;;;5009618;28;20075;-76
2022/03/27 10:56:37;;;;;;;12.90;3.35;;;;;;;;;;5008944;28;20052;-74
2022/03/27 10:59:08;;;;;;;13.75;3.80;;;;;;;;;;5009846;28;20038;-76
2022/03/27 11:01:39;;;;;;;13.73;3.75;;;;;;;;;;5027499;28;20077;-77
2022/03/27 11:04:05;;;;;;;13.13;3.80;;;;;;;;;;5027073;28;20497;-76
2022/03/27 11:06:37;;;;;;;12.60;3.70;;;;;;;;;;5010152;28;20044;-77
2022/03/27 11:09:04;;;;;;;12.40;3.90;;;;;;;;;;5009708;28;20037;-75
2022/03/27 11:11:36;;;;;;;13.00;4.10;;;;;;;;;;5027793;28;20132;-75
2022/03/27 11:14:09;;;;;;;15.27;3.92;;;;;;;;;;4987790;28;20519;-76
2022/03/27 11:16:55;;;;;;;13.07;4.43;;;;;;;;;;4987015;28;20046;-77
2022/03/27 11:19:40;;;;;;;11.48;3.38;;;;;;;;;;4986964;28;20050;-75
2022/03/27 11:22:06;;;;;;;15.40;3.90;;;;;;;;;;4988228;28;20108;-75
2022/03/27 11:24:32;;;;;;;12.73;3.53;;;;;;;;;;4988262;28;20050;-77
2022/03/27 11:27:27;;;;;;;15.88;3.70;;;;;;;;;;5086878;28;20506;-76
2022/03/27 11:30:12;;;;;;;14.05;3.65;;;;;;;;;;5085531;28;20082;-74
2022/03/27 11:32:58;;;;;;;15.85;4.03;;;;;;;;;;5069288;28;20040;-76
2022/03/27 11:35:24;;;;;;;11.73;3.58;;;;;;;;;;5087056;28;20036;-75
2022/03/27 11:38:10;;;;;;;13.80;3.40;;;;;;;;;;5068639;28;20036;-75
2022/03/27 11:40:37;;;;;;;11.35;3.20;;;;;;;;;;5085100;28;20048;-74
2022/03/27 11:43:22;;;;;;;10.68;2.90;;;;;;;;;;5085148;28;20033;-75
2022/03/27 11:45:49;;;;;;;14.65;3.42;;;;;;;;;;5085495;28;20396;-75
2022/03/27 11:48:16;;;;;;;11.10;2.60;;;;;;;;;;5086948;28;20066;-74
2022/03/27 11:50:42;;;;;;;11.07;3.15;;;;;;;;;;5085441;28;20115;-75
2022/03/27 11:53:09;;;;;;;10.25;2.92;;;;;;;;;;5085149;28;20032;-74
2022/03/27 11:55:37;;;;;;;9.85;2.83;;;;;;;;;;5068838;28;20036;-74
2022/03/27 11:58:03;;;;;;;11.27;3.10;;;;;;;;;;5084957;28;20115;-75
2022/03/27 12:00:30;;;;;;;14.25;3.10;;;;;;;;;;5068566;28;20041;-75
2022/03/27 12:02:56;;;;;;;9.05;2.90;;;;;;;;;;5084692;28;20153;-75
2022/03/27 12:05:22;;;;;;;13.23;2.90;;;;;;;;;;5085317;28;20036;-74
2022/03/27 12:07:49;;;;;;;13.75;3.50;;;;;;;;;;5084029;28;20040;-75
2022/03/27 12:10:16;;;;;;;13.60;2.85;;;;;;;;;;5085160;28;20040;-74
2022/03/27 12:12:56;;;;;;;11.40;3.08;;;;;;;;;;5084694;28;20051;-76
2022/03/27 12:15:22;;;;;;;9.70;2.45;;;;;;;;;;5084981;28;20040;-75
2022/03/27 12:17:48;;;;;;;11.65;3.00;;;;;;;;;;5069415;28;20047;-76
2022/03/27 12:20:15;;;;;;;11.93;3.05;;;;;;;;;;5086779;28;20058;-75
2022/03/27 12:22:42;;;;;;;10.93;2.60;;;;;;;;;;5086123;28;20543;-75
2022/03/27 12:25:11;;;;;;;11.32;2.50;;;;;;;;;;5084367;28;20053;-74
2022/03/27 12:30:31;;;;;;;11.88;3.08;;;;;;;;;;5067937;28;20044;-74
2022/03/27 12:32:57;;;;;;;10.30;2.70;;;;;;;;;;5084608;28;20047;-75
2022/03/27 12:35:23;;;;;;;12.18;3.08;;;;;;;;;;5084646;28;20115;-76
2022/03/27 12:37:50;;;;;;;12.00;2.80;;;;;;;;;;5074226;28;20037;-76
2022/03/27 12:40:16;;;;;;;9.88;2.50;;;;;;;;;;5054601;28;20033;-76
2022/03/27 12:42:46;;;;;;;13.02;2.90;;;;;;;;;;5071464;28;20037;-76
2022/03/27 12:45:19;;;;;;;13.63;3.42;;;;;;;;;;5071416;28;20515;-75
2022/03/27 12:47:49;;;;;;;13.00;3.05;;;;;;;;;;5071964;28;20121;-75
2022/03/27 12:50:35;;;;;;;12.52;3.10;;;;;;;;;;5071252;28;20048;-76
2022/03/27 12:53:06;;;;;;;12.07;2.95;;;;;;;;;;5070952;28;20456;-74
2022/03/27 12:55:49;;;;;;;10.05;2.95;;;;;;;;;;5070923;28;20045;-77
2022/03/27 12:58:35;;;;;;;11.35;2.72;;;;;;;;;;5054709;28;20055;-76
2022/03/27 13:01:01;;;;;;;;;;;;;;;;;;5071270;28;20060;-75
2022/03/27 13:03:27;;;;;;;;;;;;;;;;;;5071598;28;19920;-75
2022/03/27 13:05:56;;;;;;;12.68;2.63;;;;;;;;;;5070612;28;19925;-76
2022/03/27 13:08:34;;;;;;;10.52;2.38;;;;;;;;;;5071073;28;20110;-76
2022/03/27 13:11:01;;;;;;;12.77;2.75;;;;;;;;;;5071262;28;20507;-75
2022/03/27 13:13:44;;;;;;;12.45;2.70;;;;;;;;;;5071333;28;20565;-76
2022/03/27 13:16:24;;;;;;;8.63;2.05;;;;;;;;;;5069332;28;20043;-76
2022/03/27 13:18:59;;;;;;;10.10;2.33;;;;;;;;;;5069796;28;20070;-76
2022/03/27 13:21:25;;;;;;;9.05;2.60;;;;;;;;;;5070644;28;20040;-75
2022/03/27 13:23:51;;;;;;;8.98;2.35;;;;;;;;;;5070227;28;20051;-76
2022/03/27 13:26:17;;;;;;;8.80;2.20;;;;;;;;;;5072103;28;20084;-76
2022/03/27 13:28:43;;;;;;;10.95;2.33;;;;;;;;;;5037339;28;20044;-76
2022/03/27 13:31:11;;;;;;;12.75;2.72;;;;;;;;;;5069979;28;20045;-77
2022/03/27 13:33:37;;;;;;;11.68;2.85;;;;;;;;;;5071280;28;20053;-74
2022/03/27 13:36:03;;;;;;;10.52;2.30;;;;;;;;;;5053480;28;20055;-76
2022/03/27 13:38:29;;;;;;;11.07;2.70;;;;;;;;;;5069863;28;20044;-74
2022/03/27 13:43:40;;;;;;;15.93;2.80;;;;;;;;;;5069728;28;20179;-74
2022/03/27 13:46:06;;;;;;;11.82;2.50;;;;;;;;;;5069331;28;20052;-76
2022/03/27 13:48:33;;;;;;;12.85;3.00;;;;;;;;;;5069128;28;20171;-76
2022/03/27 13:50:59;;;;;;;11.18;2.65;;;;;;;;;;5068527;28;20036;-76
2022/03/27 13:53:25;;;;;;;12.63;2.90;;;;;;;;;;5066936;28;20032;-76
2022/03/27 13:55:51;;;;;;;11.57;2.63;;;;;;;;;;5069409;28;20051;-75
2022/03/27 13:58:17;;;;;;;16.95;2.95;;;;;;;;;;5069654;28;20044;-76
2022/03/27 14:00:43;;;;;;;11.65;2.38;;;;;;;;;;5069754;28;20093;-76
2022/03/27 14:03:09;;;;;;;12.55;2.50;;;;;;;;;;5053092;28;20589;-75
2022/03/27 14:05:36;;;;;;;13.13;2.88;;;;;;;;;;5069418;28;20454;-75
2022/03/27 14:08:02;;;;;;;10.75;2.80;;;;;;;;;;5052844;28;20067;-76
2022/03/27 14:10:28;;;;;;;14.82;3.05;;;;;;;;;;5066871;28;20049;-76
2022/03/27 14:12:54;;;;;;;11.63;2.80;;;;;;;;;;5069182;28;20124;-76
2022/03/27 14:15:20;;;;;;;13.88;2.97;;;;;;;;;;5069250;28;20042;-76
2022/03/27 14:17:48;;;;;;;12.95;2.90;;;;;;;;;;5052417;28;20040;-75
2022/03/27 14:20:16;;;;;;;11.18;2.60;;;;;;;;;;5070489;28;20076;-76
2022/03/27 14:22:42;;;;;;;13.65;2.55;;;;;;;;;;5069081;28;20115;-76
2022/03/27 14:25:10;;;;;;;14.63;2.90;;;;;;;;;;5052047;28;20206;-75
2022/03/27 14:27:37;;;;;;;11.70;2.38;;;;;;;;;;5068997;28;20488;-75
2022/03/27 14:30:03;;;;;;;10.27;2.40;;;;;;;;;;5068508;28;20448;-74
2022/03/27 14:32:30;;;;;;;13.40;2.78;;;;;;;;;;5052643;28;20025;-74
2022/03/27 14:34:58;;;;;;;12.68;2.85;;;;;;;;;;5069698;28;20040;-74
2022/03/27 14:37:25;;;;;;;11.45;2.88;;;;;;;;;;5070069;28;20074;-74
2022/03/27 14:39:52;;;;;;;11.45;2.47;;;;;;;;;;5052069;28;20087;-76
2022/03/27 14:42:18;;;;;;;9.55;2.28;;;;;;;;;;5069045;28;20044;-76
2022/03/27 14:44:45;;;;;;;12.40;2.42;;;;;;;;;;5068972;28;20435;-76
2022/03/27 14:47:11;;;;;;;13.00;2.83;;;;;;;;;;5068359;28;20055;-75
2022/03/27 14:49:37;;;;;;;10.23;2.17;;;;;;;;;;5069854;28;20032;-76
2022/03/27 14:52:04;;;;;;;13.65;2.45;;;;;;;;;;5068148;28;20044;-75